Time;durP1;ratioP1;P1;durP2;ratioP2;P2;SDS_P1;SDS_P2;PMS_P1;PMS_P2;Temp;Humidity;BMP_temperature;BMP_pressure;BME280_temperature;BME280_humidity;BME280_pressure;Samples;Min_cycle;Max_cycle;Signal;HPM_P1;HPM_P2
2022/11/20 00:00:38;;;;;;;15.77;9.48;;;;;;;-1.26;70.56;99880.06;5055198;28;20032;-60
2022/11/20 00:03:03;;;;;;;14.32;8.30;;;;;;;-1.14;70.36;99887.59;5035730;28;20116;-55
2022/11/20 00:05:28;;;;;;;15.63;9.63;;;;;;;-1.25;70.14;99874.78;5035081;28;20253;-54
2022/11/20 00:07:54;;;;;;;13.85;7.28;;;;;;;-1.30;70.75;99872.28;5035144;28;20029;-51
2022/11/20 00:10:19;;;;;;;17.23;9.85;;;;;;;-1.13;70.02;99888.44;5035524;28;20030;-55
2022/11/20 00:12:44;;;;;;;16.65;9.52;;;;;;;-1.06;69.64;99885.56;5034515;28;20025;-52
2022/11/20 00:15:10;;;;;;;16.67;9.55;;;;;;;-1.22;70.06;99884.31;5034925;28;20036;-51
2022/11/20 00:17:35;;;;;;;17.70;9.57;;;;;;;-1.22;70.22;99890.44;5034956;28;20056;-54
2022/11/20 00:20:01;;;;;;;15.48;7.85;;;;;;;-0.99;69.10;99882.72;5051520;28;20471;-52
2022/11/20 00:22:26;;;;;;;14.60;8.23;;;;;;;-1.09;69.39;99882.16;5055006;28;20115;-51
2022/11/20 00:24:52;;;;;;;15.82;9.60;;;;;;;-1.25;69.98;99881.78;5054768;28;20108;-51
2022/11/20 00:27:17;;;;;;;9.90;5.63;;;;;;;-1.01;69.16;99886.28;5041724;28;20070;-50
2022/11/20 00:29:42;;;;;;;17.13;9.20;;;;;;;-1.09;68.90;99882.16;5054594;28;20043;-55
2022/11/20 00:32:08;;;;;;;14.68;8.77;;;;;;;-1.49;69.75;99864.13;5054811;28;20107;-56
2022/11/20 00:34:33;;;;;;;17.05;9.32;;;;;;;-1.31;69.75;99888.97;5054672;28;20132;-54
2022/11/20 00:36:59;;;;;;;15.25;8.98;;;;;;;-1.35;70.00;99876.81;5054980;28;20032;-52
2022/11/20 00:39:24;;;;;;;14.75;8.45;;;;;;;-1.15;68.95;99875.34;5053762;28;20465;-53
2022/11/20 00:41:50;;;;;;;18.17;10.38;;;;;;;-1.31;69.71;99881.06;5054919;28;20103;-58
2022/11/20 00:44:15;;;;;;;14.77;9.52;;;;;;;-1.45;70.89;99894.63;5054351;28;20076;-55
2022/11/20 00:46:42;;;;;;;16.15;8.63;;;;;;;-1.27;69.86;99886.22;5052923;28;20090;-52
2022/11/20 00:49:07;;;;;;;15.07;7.38;;;;;;;-1.12;69.52;99883.13;5054699;28;20045;-51
2022/11/20 00:51:33;;;;;;;14.75;8.90;;;;;;;-1.12;69.11;99877.88;5037812;28;20116;-50
2022/11/20 00:53:59;;;;;;;13.35;8.40;;;;;;;-1.22;69.32;99873.81;5033278;28;20420;-51
2022/11/20 00:56:26;;;;;;;14.35;8.60;;;;;;;-1.22;69.12;99877.31;5034469;28;20104;-48
2022/11/20 00:58:51;;;;;;;14.32;8.68;;;;;;;-1.35;69.91;99887.34;5043278;28;20029;-60
2022/11/20 01:01:24;;;;;;;12.38;7.57;;;;;;;-1.06;68.60;99888.19;5054424;28;20106;-52
2022/11/20 01:03:51;;;;;;;13.77;9.07;;;;;;;-1.14;68.53;99882.34;5054342;28;20041;-48
2022/11/20 01:06:26;;;;;;;9.95;5.15;;;;;;;-1.04;68.06;99881.13;5054081;28;20029;-48
2022/11/20 01:08:54;;;;;;;14.40;7.63;;;;;;;-1.13;68.26;99891.06;5054359;28;20467;-56
2022/11/20 01:11:23;;;;;;;13.88;7.88;;;;;;;-1.33;68.75;99882.00;5054167;28;20091;-49
2022/11/20 01:13:50;;;;;;;13.23;8.50;;;;;;;-1.45;69.60;99888.50;5042014;28;20033;-54
2022/11/20 01:16:18;;;;;;;15.25;8.80;;;;;;;-1.48;69.93;99893.84;5034015;28;20144;-49
2022/11/20 01:18:46;;;;;;;13.60;6.82;;;;;;;-1.38;69.64;99884.81;5042144;28;20477;-48
2022/11/20 01:21:14;;;;;;;15.15;8.82;;;;;;;-1.38;69.50;99874.31;5053808;28;20029;-53
2022/11/20 01:23:41;;;;;;;12.27;7.82;;;;;;;-1.18;68.56;99883.34;5053881;28;20037;-55
2022/11/20 01:26:12;;;;;;;14.07;8.65;;;;;;;-1.35;68.80;99874.19;5053406;28;20040;-50
2022/11/20 01:28:39;;;;;;;14.05;8.43;;;;;;;-1.25;68.07;99881.78;5053618;28;20025;-48
2022/11/20 01:31:36;;;;;;;11.98;7.13;;;;;;;-1.27;68.71;99880.97;5052766;28;20474;-51
2022/11/20 01:34:04;;;;;;;11.38;6.97;;;;;;;-1.29;68.48;99878.41;5052339;28;20480;-55
2022/11/20 01:36:31;;;;;;;13.68;7.70;;;;;;;-1.49;69.16;99889.50;5053365;28;20064;-55
2022/11/20 01:39:02;;;;;;;13.65;7.60;;;;;;;-1.35;68.68;99884.72;5036863;28;20101;-48
2022/11/20 01:44:16;;;;;;;12.48;7.68;;;;;;;-1.36;68.27;99893.50;5048455;28;20084;-52
2022/11/20 01:47:01;;;;;;;13.43;8.20;;;;;;;-1.36;68.24;99888.25;5052986;28;20135;-49
2022/11/20 01:49:30;;;;;;;12.90;8.10;;;;;;;-1.53;69.24;99890.50;5053320;28;20025;-51
2022/11/20 01:52:04;;;;;;;11.95;7.40;;;;;;;-1.37;68.63;99902.28;5050962;28;20360;-49
2022/11/20 01:54:39;;;;;;;13.20;8.07;;;;;;;-1.47;69.19;99908.69;5033194;28;20128;-54
2022/11/20 01:57:09;;;;;;;16.65;8.77;;;;;;;-1.45;68.85;99912.13;5035010;28;20033;-54
2022/11/20 01:59:39;;;;;;;13.07;6.80;;;;;;;-1.40;68.93;99917.25;5040596;28;20056;-55
2022/11/20 02:02:04;;;;;;;12.73;7.97;;;;;;;-1.43;68.60;99906.84;5033128;28;20040;-52
2022/11/20 02:04:30;;;;;;;13.85;8.18;;;;;;;-1.46;68.64;99910.41;5033010;28;20025;-53
2022/11/20 02:07:05;;;;;;;12.25;7.50;;;;;;;-1.55;68.79;99908.94;5033243;28;20094;-54
2022/11/20 02:09:31;;;;;;;13.82;8.13;;;;;;;-1.53;68.97;99927.28;5032953;28;20034;-50
2022/11/20 02:11:58;;;;;;;12.45;6.13;;;;;;;-1.40;68.52;99928.66;5032829;28;20863;-53
2022/11/20 02:14:25;;;;;;;10.65;6.95;;;;;;;-1.39;68.25;99927.75;5033098;28;20395;-51
2022/11/20 02:16:50;;;;;;;12.52;7.63;;;;;;;-1.55;69.05;99927.34;5031783;28;20029;-49
2022/11/20 02:19:26;;;;;;;11.32;7.00;;;;;;;-1.56;69.00;99928.25;5042564;28;20098;-54
2022/11/20 02:22:14;;;;;;;11.90;7.53;;;;;;;-1.53;69.56;99927.28;5052993;28;20103;-50
2022/11/20 02:24:41;;;;;;;8.30;5.60;;;;;;;-1.45;68.90;99926.16;5052714;28;20047;-53
2022/11/20 02:27:09;;;;;;;11.82;7.53;;;;;;;-1.49;69.17;99934.16;5052888;28;20501;-55
2022/11/20 02:29:44;;;;;;;14.25;7.93;;;;;;;-1.54;70.11;99938.69;5052802;28;20359;-51
2022/11/20 02:32:19;;;;;;;13.35;8.02;;;;;;;-1.33;69.29;99945.06;5050895;28;20496;-53
2022/11/20 02:34:44;;;;;;;13.88;8.07;;;;;;;-1.32;68.60;99929.25;5051578;28;20478;-57
2022/11/20 02:37:10;;;;;;;13.70;8.23;;;;;;;-1.64;69.33;99909.19;5052736;28;20060;-51
2022/11/20 02:39:35;;;;;;;14.55;8.10;;;;;;;-1.53;69.86;99943.03;5038529;28;20082;-52
2022/11/20 02:42:02;;;;;;;15.63;8.38;;;;;;;-1.30;68.55;99937.13;5032425;28;20064;-53
2022/11/20 02:44:28;;;;;;;15.02;7.95;;;;;;;-1.51;69.63;99935.97;5032383;28;20072;-59
2022/11/20 02:46:53;;;;;;;11.20;7.30;;;;;;;-1.36;69.45;99943.41;5033030;28;20041;-50
2022/11/20 02:49:18;;;;;;;13.57;7.97;;;;;;;-1.32;68.45;99937.16;5032541;28;20026;-56
2022/11/20 02:51:44;;;;;;;13.52;8.02;;;;;;;-1.43;68.55;99912.97;5032387;28;20061;-50
2022/11/20 02:54:09;;;;;;;14.45;7.68;;;;;;;-1.52;69.37;99948.25;5032145;28;20040;-52
2022/11/20 02:56:38;;;;;;;13.95;8.02;;;;;;;-1.52;69.66;99947.38;5031470;28;20087;-54
2022/11/20 02:59:04;;;;;;;14.18;8.70;;;;;;;-1.52;69.89;99947.38;5042731;28;20033;-52
2022/11/20 03:01:29;;;;;;;16.20;8.40;;;;;;;-1.56;69.70;99933.50;5052048;28;20120;-54
2022/11/20 03:03:55;;;;;;;12.43;7.72;;;;;;;-1.40;68.96;99949.66;5039108;28;20112;-50
2022/11/20 03:06:21;;;;;;;13.98;8.82;;;;;;;-1.50;68.94;99945.56;5032088;28;20479;-54
2022/11/20 03:08:47;;;;;;;13.82;8.40;;;;;;;-1.48;70.04;99951.63;5032197;28;20029;-51
2022/11/20 03:11:12;;;;;;;12.60;8.10;;;;;;;-1.60;70.02;99924.81;5031467;28;20529;-55
2022/11/20 03:13:38;;;;;;;13.35;7.20;;;;;;;-1.19;68.40;99952.56;5031979;28;20037;-52
2022/11/20 03:16:12;;;;;;;15.35;8.10;;;;;;;-1.12;68.02;99953.22;5032167;28;20036;-51
2022/11/20 03:18:39;;;;;;;13.10;7.97;;;;;;;-1.21;67.89;99946.47;5044277;28;20083;-56
2022/11/20 03:21:04;;;;;;;13.90;7.60;;;;;;;-1.27;67.76;99951.91;5051882;28;20718;-52
2022/11/20 03:23:32;;;;;;;11.38;7.43;;;;;;;-1.49;69.39;99956.03;5050985;28;20107;-54
2022/11/20 03:26:18;;;;;;;16.27;8.68;;;;;;;-1.46;69.89;99957.69;5052370;28;20029;-54
2022/11/20 03:28:49;;;;;;;13.20;7.80;;;;;;;-1.42;69.05;99958.47;5054256;28;20108;-52
2022/11/20 03:31:17;;;;;;;18.88;8.68;;;;;;;-1.30;68.31;99961.59;5053789;28;20029;-52
2022/11/20 03:33:42;;;;;;;14.07;8.60;;;;;;;-1.43;68.62;99962.00;5055906;28;20076;-53
2022/11/20 03:36:13;;;;;;;14.40;8.70;;;;;;;-1.47;69.01;99963.84;5055655;28;20110;-50
2022/11/20 03:38:40;;;;;;;12.30;7.82;;;;;;;-1.48;69.07;99962.13;5041730;28;20045;-52
2022/11/20 03:41:08;;;;;;;14.85;8.18;;;;;;;-1.43;69.23;99960.25;5035715;28;20029;-52
2022/11/20 03:43:34;;;;;;;15.15;8.20;;;;;;;-1.42;69.53;99956.72;5035369;28;20199;-50
2022/11/20 03:46:00;;;;;;;17.17;8.57;;;;;;;-1.37;68.58;99957.44;5035937;28;20048;-50
2022/11/20 03:48:26;;;;;;;13.43;8.20;;;;;;;-1.31;68.39;99964.28;5035776;28;20122;-52
2022/11/20 03:50:53;;;;;;;15.52;8.25;;;;;;;-1.35;68.67;99962.63;5035623;28;20119;-49
2022/11/20 03:53:19;;;;;;;17.27;9.27;;;;;;;-1.46;68.77;99966.44;5035380;28;20104;-50
2022/11/20 03:55:49;;;;;;;14.60;9.18;;;;;;;-1.46;69.49;99976.06;5048072;28;20037;-52
2022/11/20 03:58:15;;;;;;;15.02;7.15;;;;;;;-1.36;68.54;99980.19;5038790;28;20074;-48
2022/11/20 04:00:40;;;;;;;16.10;9.90;;;;;;;-1.28;68.56;99984.34;5035442;28;20356;-49
2022/11/20 04:03:06;;;;;;;16.63;9.13;;;;;;;-1.41;68.94;99976.81;5034316;28;20026;-50
2022/11/20 04:05:33;;;;;;;14.93;8.38;;;;;;;-1.38;69.19;99982.00;5035197;28;20091;-50
2022/11/20 04:07:59;;;;;;;14.55;8.45;;;;;;;-1.35;69.14;99984.53;5035181;28;20060;-52
2022/11/20 04:10:24;;;;;;;12.60;7.55;;;;;;;-1.24;67.83;99983.34;5034013;28;20456;-54
2022/11/20 04:12:50;;;;;;;13.95;7.88;;;;;;;-1.37;67.88;99985.47;5034967;28;20029;-50
2022/11/20 04:15:15;;;;;;;14.93;8.70;;;;;;;-1.39;67.69;99982.91;5034932;28;20531;-52
2022/11/20 04:17:40;;;;;;;14.70;8.35;;;;;;;-1.48;68.59;99983.13;5047124;28;20040;-52
2022/11/20 04:20:06;;;;;;;16.50;9.45;;;;;;;-1.51;68.20;99988.47;5041864;28;20033;-50
2022/11/20 04:22:32;;;;;;;15.88;8.77;;;;;;;-1.43;68.26;100007.53;5035378;28;20068;-51
2022/11/20 04:24:57;;;;;;;14.48;8.48;;;;;;;-1.62;67.28;99966.03;5034880;28;20386;-53
2022/11/20 04:27:23;;;;;;;16.52;8.88;;;;;;;-1.48;67.64;100009.41;5034568;28;20029;-50
2022/11/20 04:29:48;;;;;;;14.05;8.05;;;;;;;-1.52;68.85;100002.50;5034672;28;20145;-50
2022/11/20 04:32:13;;;;;;;14.20;8.38;;;;;;;-1.47;69.00;100005.88;5034823;28;20474;-51
2022/11/20 04:34:39;;;;;;;14.52;8.45;;;;;;;-1.40;68.22;99996.94;5034317;28;20451;-51
2022/11/20 04:37:05;;;;;;;14.60;8.23;;;;;;;-1.31;67.23;100001.91;5042467;28;20171;-54
2022/11/20 04:39:30;;;;;;;14.60;8.13;;;;;;;-1.41;67.76;100003.09;5054218;28;20119;-50
2022/11/20 04:44:39;;;;;;;15.63;9.65;;;;;;;-1.45;67.95;100020.69;5053341;28;20061;-54
2022/11/20 04:47:05;;;;;;;14.77;8.88;;;;;;;-1.55;68.57;100024.50;5054209;28;20120;-55
2022/11/20 04:49:31;;;;;;;15.20;8.88;;;;;;;-1.44;68.41;100037.31;5054468;28;20036;-53
2022/11/20 04:51:57;;;;;;;13.77;8.07;;;;;;;-1.45;68.04;100032.94;5054279;28;20025;-53
2022/11/20 04:54:22;;;;;;;14.25;8.07;;;;;;;-1.38;67.34;100037.16;5054174;28;20032;-51
2022/11/20 04:56:48;;;;;;;14.18;8.38;;;;;;;-1.43;67.81;100046.94;5046470;28;20112;-52
2022/11/20 04:59:14;;;;;;;15.40;8.20;;;;;;;-1.45;67.57;100040.81;5034316;28;20044;-52
2022/11/20 05:01:39;;;;;;;15.82;9.13;;;;;;;-1.50;67.65;100038.34;5034035;28;20112;-51
2022/11/20 05:04:05;;;;;;;15.07;8.43;;;;;;;-1.19;67.36;100047.16;5034219;28;20130;-60
2022/11/20 05:06:31;;;;;;;13.88;8.27;;;;;;;-1.09;65.70;100048.59;5034464;28;20036;-51
2022/11/20 05:08:56;;;;;;;14.40;8.73;;;;;;;-1.41;66.83;100042.50;5045992;28;20112;-50
2022/11/20 05:11:22;;;;;;;15.35;8.73;;;;;;;-1.35;66.41;100046.69;5036388;28;20047;-52
2022/11/20 05:13:48;;;;;;;16.95;8.75;;;;;;;-1.63;67.10;100032.56;5054052;28;20028;-52
2022/11/20 05:16:17;;;;;;;15.55;8.75;;;;;;;-1.45;66.61;100046.94;5049907;28;20036;-52
2022/11/20 05:18:42;;;;;;;15.00;7.70;;;;;;;-1.40;66.62;100062.59;5034000;28;20120;-55
2022/11/20 05:21:09;;;;;;;15.45;8.70;;;;;;;-1.49;67.15;100057.56;5033973;28;20163;-52
2022/11/20 05:23:36;;;;;;;15.20;8.77;;;;;;;-1.46;66.97;100062.75;5034225;28;20414;-51
2022/11/20 05:26:02;;;;;;;14.40;8.02;;;;;;;-1.45;66.27;100065.34;5034038;28;20127;-50
2022/11/20 05:28:29;;;;;;;14.90;7.93;;;;;;;-1.53;66.73;100055.94;5033773;28;20460;-48
2022/11/20 05:30:55;;;;;;;12.70;7.90;;;;;;;-1.58;66.63;100050.81;5046898;28;20410;-49
2022/11/20 05:33:21;;;;;;;14.23;8.50;;;;;;;-1.46;65.83;100060.09;5040958;28;20040;-50
2022/11/20 05:35:48;;;;;;;14.70;9.00;;;;;;;-1.55;66.63;100065.63;5034251;28;20030;-52
2022/11/20 05:38:13;;;;;;;14.88;9.27;;;;;;;-1.84;67.27;100054.13;5053157;28;20029;-54
2022/11/20 05:40:39;;;;;;;13.60;8.43;;;;;;;-1.62;67.53;100081.56;5053263;28;20047;-51
2022/11/20 05:43:04;;;;;;;13.55;8.60;;;;;;;-1.81;67.21;100059.28;5053445;28;20120;-51
2022/11/20 05:45:30;;;;;;;16.52;9.25;;;;;;;-1.54;66.11;100085.72;5051923;28;20084;-48
2022/11/20 05:48:00;;;;;;;13.25;8.18;;;;;;;-1.59;66.93;100076.22;5053253;28;20076;-51
2022/11/20 05:50:27;;;;;;;16.35;8.50;;;;;;;-1.53;66.70;100084.81;5052551;28;20099;-53
2022/11/20 05:52:52;;;;;;;15.00;9.02;;;;;;;-1.65;67.07;100086.88;5052852;28;20029;-55
2022/11/20 05:55:17;;;;;;;14.35;8.38;;;;;;;-1.64;66.72;100095.59;5052624;28;20036;-61
2022/11/20 05:57:43;;;;;;;17.38;9.68;;;;;;;-1.57;66.89;100094.53;5034526;28;20419;-58
2022/11/20 06:00:09;;;;;;;16.00;8.85;;;;;;;-1.60;66.52;100095.50;5033146;28;20025;-56
2022/11/20 06:02:35;;;;;;;15.95;9.27;;;;;;;-1.63;66.70;100100.84;5033144;28;20037;-53
2022/11/20 06:05:01;;;;;;;14.23;8.60;;;;;;;-1.65;67.31;100110.50;5033543;28;20100;-60
2022/11/20 06:07:26;;;;;;;16.08;9.52;;;;;;;-1.49;66.62;100112.72;5033789;28;20032;-58
2022/11/20 06:09:52;;;;;;;17.63;9.50;;;;;;;-1.52;66.96;100113.69;5043833;28;20033;-55
2022/11/20 06:12:17;;;;;;;15.70;9.73;;;;;;;-1.48;67.46;100109.19;5052637;28;20439;-59
2022/11/20 06:14:43;;;;;;;15.30;9.98;;;;;;;-1.36;67.26;100123.75;5052658;28;20035;-65
2022/11/20 06:17:08;;;;;;;18.15;9.23;;;;;;;-1.23;66.64;100124.28;5051422;28;20103;-59
2022/11/20 06:19:33;;;;;;;17.08;10.10;;;;;;;-1.14;66.25;100121.44;5051751;28;20451;-59
2022/11/20 06:21:59;;;;;;;17.50;9.90;;;;;;;-1.14;66.58;100115.31;5035046;28;20484;-60
2022/11/20 06:24:25;;;;;;;17.00;10.07;;;;;;;-1.09;66.36;100143.19;5032649;28;20029;-61
2022/11/20 06:26:51;;;;;;;17.13;10.43;;;;;;;-1.16;66.35;100120.63;5032857;28;20464;-59
2022/11/20 06:29:16;;;;;;;19.15;10.65;;;;;;;-1.06;66.07;100140.47;5032646;28;20112;-60
2022/11/20 06:31:42;;;;;;;18.02;10.35;;;;;;;-1.10;66.06;100151.09;5032348;28;20444;-57
2022/11/20 06:34:08;;;;;;;19.42;10.50;;;;;;;-1.12;66.56;100153.78;5032864;28;20444;-60
2022/11/20 06:36:34;;;;;;;16.95;9.85;;;;;;;-1.26;66.45;100130.50;5032641;28;20040;-59
2022/11/20 06:39:00;;;;;;;20.60;10.30;;;;;;;-1.21;66.87;100127.75;5044132;28;20117;-59
2022/11/20 06:41:25;;;;;;;15.82;9.80;;;;;;;-1.13;66.39;100122.28;5052463;28;20040;-58
2022/11/20 06:43:51;;;;;;;19.27;11.15;;;;;;;-0.90;66.02;100154.06;5052111;28;20060;-58
2022/11/20 06:46:18;;;;;;;17.63;10.93;;;;;;;-0.84;65.94;100153.03;5035861;28;20087;-59
2022/11/20 06:48:44;;;;;;;19.75;11.18;;;;;;;-0.74;65.15;100154.47;5032480;28;20571;-61
2022/11/20 06:51:09;;;;;;;19.45;11.00;;;;;;;-1.02;65.70;100107.94;5032549;28;20112;-59
2022/11/20 06:53:36;;;;;;;19.70;10.88;;;;;;;-0.76;65.86;100137.88;5032281;28;20033;-59
2022/11/20 06:56:02;;;;;;;19.67;11.07;;;;;;;-0.71;65.11;100136.91;5032404;28;20147;-59
2022/11/20 06:58:29;;;;;;;21.83;11.35;;;;;;;-0.70;64.46;100139.47;5040343;28;20056;-58
2022/11/20 07:01:03;;;;;;;18.02;10.27;;;;;;;-0.61;64.70;100149.72;5052011;28;20135;-66
2022/11/20 07:03:29;;;;;;;14.93;8.50;;;;;;;-0.60;65.16;100146.22;5055969;28;20120;-62
2022/11/20 07:05:56;;;;;;;17.25;10.50;;;;;;;-0.56;65.15;100154.84;5054250;28;20111;-62
2022/11/20 07:08:22;;;;;;;21.00;11.38;;;;;;;-0.46;64.32;100155.44;5052786;28;20025;-62
2022/11/20 07:10:47;;;;;;;20.63;10.75;;;;;;;-0.40;64.40;100138.63;5052290;28;20120;-63
2022/11/20 07:13:14;;;;;;;17.65;11.65;;;;;;;-0.40;63.79;100125.47;5044086;28;20167;-62
2022/11/20 07:15:39;;;;;;;22.23;11.82;;;;;;;-0.41;63.46;100107.97;5054948;28;20028;-62
2022/11/20 07:18:05;;;;;;;19.52;11.75;;;;;;;-0.23;63.45;100136.34;5047885;28;20041;-63
2022/11/20 07:20:30;;;;;;;19.10;11.88;;;;;;;-0.24;63.10;100139.00;5055252;28;20021;-62
2022/11/20 07:22:57;;;;;;;21.58;12.40;;;;;;;-0.28;63.30;100151.38;5055893;28;20029;-63
2022/11/20 07:25:24;;;;;;;21.67;11.98;;;;;;;-0.33;63.17;100153.31;5055969;28;20086;-63
2022/11/20 07:27:49;;;;;;;20.70;12.35;;;;;;;-0.54;63.24;100158.28;5055620;28;20025;-62
2022/11/20 07:30:16;;;;;;;20.35;11.43;;;;;;;-0.43;63.09;100163.25;5055357;28;20040;-63
2022/11/20 07:32:41;;;;;;;22.15;12.48;;;;;;;-0.61;63.81;100152.34;5053389;28;20040;-62
2022/11/20 07:35:07;;;;;;;22.15;12.10;;;;;;;-0.61;64.12;100146.25;5055547;28;20033;-73
2022/11/20 07:37:35;;;;;;;21.70;11.80;;;;;;;-0.49;63.23;100159.00;5052130;28;20036;-63
2022/11/20 07:40:01;;;;;;;20.63;12.10;;;;;;;-0.48;63.71;100150.25;5035242;28;20465;-64
2022/11/20 07:42:27;;;;;;;24.55;12.38;;;;;;;-0.51;63.78;100155.56;5035622;28;20060;-61
2022/11/20 07:44:53;;;;;;;22.98;12.35;;;;;;;-0.47;63.93;100159.88;5035063;28;20478;-61
2022/11/20 07:47:18;;;;;;;22.88;12.10;;;;;;;-0.36;63.89;100169.19;5034966;28;20427;-62
2022/11/20 07:49:44;;;;;;;20.90;12.20;;;;;;;-0.28;63.29;100172.44;5034908;28;20234;-60
2022/11/20 07:52:09;;;;;;;21.30;12.93;;;;;;;-0.36;63.15;100142.88;5035050;28;20087;-56
2022/11/20 07:54:34;;;;;;;22.95;13.35;;;;;;;-0.08;62.29;100166.59;5035162;28;20037;-57
2022/11/20 07:57:00;;;;;;;21.65;13.05;;;;;;;-0.20;62.95;100170.47;5037826;28;20440;-57
2022/11/20 07:59:25;;;;;;;23.38;13.27;;;;;;;-0.15;62.64;100165.91;5054855;28;20059;-56
2022/11/20 08:01:51;;;;;;;27.55;13.73;;;;;;;-0.13;62.74;100178.16;5055070;28;20120;-57
2022/11/20 08:04:16;;;;;;;24.20;13.68;;;;;;;-0.19;63.24;100168.69;5054580;28;20355;-59
2022/11/20 08:06:42;;;;;;;26.27;13.52;;;;;;;-0.19;63.15;100182.72;5055055;28;20102;-56
2022/11/20 08:09:07;;;;;;;23.42;13.52;;;;;;;-0.13;62.38;100186.06;5054719;28;20025;-55
2022/11/20 08:14:16;;;;;;;23.13;13.10;;;;;;;-0.14;62.50;100174.66;5053522;28;20440;-57
2022/11/20 08:16:47;;;;;;;24.27;12.98;;;;;;;-0.17;63.07;100172.13;5051852;28;20059;-58
2022/11/20 08:19:13;;;;;;;25.85;14.18;;;;;;;-0.09;62.25;100188.56;5034653;28;20073;-56
2022/11/20 08:21:40;;;;;;;27.85;14.57;;;;;;;0.01;61.84;100172.47;5040254;28;20455;-56
2022/11/20 08:24:06;;;;;;;26.95;14.40;;;;;;;-0.05;63.03;100190.19;5054544;28;20594;-55
2022/11/20 08:26:32;;;;;;;26.05;13.85;;;;;;;0.01;62.13;100183.88;5054155;28;20029;-56
2022/11/20 08:28:58;;;;;;;29.25;15.35;;;;;;;0.01;62.25;100183.00;5054311;28;20036;-55
2022/11/20 08:31:25;;;;;;;27.48;14.75;;;;;;;-0.11;62.47;100186.88;5054106;28;20107;-55
2022/11/20 08:33:51;;;;;;;28.58;14.68;;;;;;;-0.10;62.67;100186.84;5053569;28;20033;-54
2022/11/20 08:36:18;;;;;;;28.00;15.82;;;;;;;0.05;62.36;100197.78;5052935;28;20116;-56
2022/11/20 08:38:48;;;;;;;31.02;15.93;;;;;;;0.12;61.92;100189.66;5034178;28;20045;-59
2022/11/20 08:41:30;;;;;;;26.40;14.90;;;;;;;0.09;62.22;100195.03;5034391;28;20029;-53
2022/11/20 08:43:59;;;;;;;29.13;15.02;;;;;;;0.20;62.03;100201.69;5034066;28;20156;-53
2022/11/20 08:46:26;;;;;;;25.77;15.57;;;;;;;0.32;61.81;100203.09;5033779;28;20056;-57
2022/11/20 08:48:52;;;;;;;27.23;15.13;;;;;;;0.32;61.73;100193.44;5046487;28;20033;-55
2022/11/20 08:51:19;;;;;;;28.08;15.73;;;;;;;0.42;61.47;100210.66;5053492;28;20046;-59
2022/11/20 08:53:44;;;;;;;28.98;15.00;;;;;;;0.36;61.29;100208.22;5054334;28;20047;-58
2022/11/20 08:56:10;;;;;;;33.10;16.30;;;;;;;0.32;62.10;100209.22;5053427;28;20029;-59
2022/11/20 08:58:36;;;;;;;31.40;15.75;;;;;;;0.40;61.54;100217.72;5034446;28;20041;-57
2022/11/20 09:01:02;;;;;;;32.63;16.65;;;;;;;0.36;61.52;100221.38;5036059;28;20052;-59
2022/11/20 09:03:27;;;;;;;33.50;16.30;;;;;;;0.39;61.82;100225.72;5053373;28;20484;-53
2022/11/20 09:06:19;;;;;;;29.27;15.60;;;;;;;0.60;62.15;100226.78;5053211;28;20029;-59
2022/11/20 09:08:44;;;;;;;29.98;16.45;;;;;;;0.63;61.98;100237.22;5052865;28;20051;-54
2022/11/20 09:11:10;;;;;;;31.27;16.27;;;;;;;0.71;62.03;100250.13;5053726;28;20036;-54
2022/11/20 09:13:36;;;;;;;35.58;17.83;;;;;;;0.73;61.99;100244.84;5053403;28;20056;-56
2022/11/20 09:16:05;;;;;;;36.70;17.88;;;;;;;0.77;61.01;100242.03;5048608;28;20411;-58
2022/11/20 09:18:32;;;;;;;34.63;17.38;;;;;;;0.77;61.89;100252.56;5033373;28;20033;-58
2022/11/20 09:21:03;;;;;;;34.53;17.70;;;;;;;0.84;61.14;100258.50;5033560;28;20029;-58
2022/11/20 09:23:33;;;;;;;30.67;16.80;;;;;;;0.79;61.71;100260.44;5033427;28;20337;-58
2022/11/20 09:26:05;;;;;;;35.28;18.35;;;;;;;0.77;62.17;100272.81;5049631;28;20086;-57
2022/11/20 09:28:31;;;;;;;33.67;17.30;;;;;;;0.80;61.79;100275.34;5053286;28;20029;-57
2022/11/20 09:30:57;;;;;;;33.13;17.58;;;;;;;0.78;62.17;100274.53;5053401;28;20040;-59
2022/11/20 09:33:23;;;;;;;32.08;17.02;;;;;;;0.83;62.60;100272.59;5052885;28;20191;-56
2022/11/20 09:35:48;;;;;;;35.55;18.38;;;;;;;0.88;62.25;100281.19;5045183;28;20029;-56
2022/11/20 09:38:14;;;;;;;39.60;18.08;;;;;;;0.87;62.37;100284.75;5033455;28;20026;-55
2022/11/20 09:40:56;;;;;;;35.95;18.17;;;;;;;0.91;62.64;100294.28;5033090;28;20033;-56
2022/11/20 09:43:37;;;;;;;35.30;17.95;;;;;;;0.88;63.09;100293.53;5032932;28;20058;-59
2022/11/20 09:46:14;;;;;;;38.15;18.15;;;;;;;0.84;62.40;100285.75;5032684;28;20135;-59
2022/11/20 09:48:49;;;;;;;34.03;17.33;;;;;;;0.85;62.43;100291.84;5035970;28;20144;-56
2022/11/20 09:51:24;;;;;;;37.97;18.48;;;;;;;0.81;63.11;100295.50;5046892;28;20482;-57
2022/11/20 09:54:16;;;;;;;38.70;18.35;;;;;;;0.83;62.94;100285.78;5031539;28;20104;-57
2022/11/20 09:56:45;;;;;;;41.33;18.48;;;;;;;0.82;62.38;100286.69;5044830;28;20033;-58
2022/11/20 09:59:36;;;;;;;36.72;18.45;;;;;;;0.81;63.05;100284.97;5045457;28;20045;-58
2022/11/20 10:02:11;;;;;;;37.55;17.15;;;;;;;0.76;63.24;100286.91;5032644;28;20356;-57
2022/11/20 10:04:43;;;;;;;41.33;19.10;;;;;;;0.81;63.06;100291.09;5032949;28;20115;-55
2022/11/20 10:07:16;;;;;;;42.33;18.77;;;;;;;0.85;63.06;100286.59;5033168;28;20037;-58
2022/11/20 10:09:50;;;;;;;39.75;18.73;;;;;;;0.88;63.39;100296.19;5033054;28;20065;-59
2022/11/20 10:12:35;;;;;;;47.67;19.27;;;;;;;0.91;63.29;100286.38;5033405;28;20430;-52
2022/11/20 10:15:17;;;;;;;41.60;19.02;;;;;;;0.94;63.98;100280.16;5051436;28;20064;-57
2022/11/20 10:18:09;;;;;;;38.30;19.30;;;;;;;1.12;63.45;100299.75;5053210;28;20459;-59
2022/11/20 10:20:46;;;;;;;39.85;18.90;;;;;;;1.12;64.49;100292.72;5033051;28;20052;-56
2022/11/20 10:23:17;;;;;;;34.88;17.75;;;;;;;1.18;63.84;100296.91;5032770;28;20037;-56
2022/11/20 10:25:55;;;;;;;38.05;17.27;;;;;;;1.18;63.71;100306.59;5032836;28;20356;-56
2022/11/20 10:29:11;;;;;;;35.22;18.65;;;;;;;1.27;63.95;100306.28;5032911;28;20061;-56
2022/11/20 10:31:42;;;;;;;34.00;16.85;;;;;;;1.17;63.88;100305.72;5030539;28;20045;-57
2022/11/20 10:34:47;;;;;;;34.95;18.27;;;;;;;1.19;64.11;100305.69;5030647;28;20048;-56
2022/11/20 10:37:23;;;;;;;36.78;16.95;;;;;;;1.09;64.18;100294.59;5030485;28;20090;-62
2022/11/20 10:40:02;;;;;;;38.60;17.52;;;;;;;1.11;64.37;100312.09;5030983;28;20037;-57
2022/11/20 10:42:44;;;;;;;36.92;18.77;;;;;;;1.18;64.45;100304.81;5014285;28;20052;-55
2022/11/20 10:45:20;;;;;;;32.80;17.08;;;;;;;1.22;63.98;100301.19;5030083;28;20061;-58
2022/11/20 10:47:45;;;;;;;31.40;16.98;;;;;;;1.24;63.55;100296.72;5030273;28;20045;-55
2022/11/20 10:50:18;;;;;;;32.20;16.70;;;;;;;1.36;63.57;100313.91;5030514;28;20114;-57
2022/11/20 10:53:07;;;;;;;29.02;15.30;;;;;;;1.49;62.69;100319.59;5030625;28;20041;-59
2022/11/20 10:55:44;;;;;;;30.25;16.35;;;;;;;1.50;62.25;100325.72;5030356;28;20045;-59
2022/11/20 10:58:16;;;;;;;35.05;16.80;;;;;;;1.35;62.80;100317.44;5039551;28;20041;-59
2022/11/20 11:00:42;;;;;;;34.22;16.50;;;;;;;1.33;62.63;100328.97;5050659;28;20041;-58
2022/11/20 11:03:34;;;;;;;32.15;16.33;;;;;;;1.40;62.71;100326.06;5045836;28;20044;-59
2022/11/20 11:06:06;;;;;;;31.23;15.48;;;;;;;1.33;62.75;100321.03;5051901;28;20056;-59
2022/11/20 11:08:37;;;;;;;32.65;15.88;;;;;;;1.33;62.77;100324.56;5052128;28;20076;-58
2022/11/20 11:11:21;;;;;;;30.20;15.98;;;;;;;1.35;63.20;100328.00;5052162;28;20029;-58
2022/11/20 11:13:46;;;;;;;28.10;15.02;;;;;;;1.27;62.71;100330.91;5051729;28;20048;-58
2022/11/20 11:16:23;;;;;;;28.38;13.98;;;;;;;1.31;62.24;100347.47;5052400;28;20029;-58
2022/11/20 11:18:49;;;;;;;24.95;13.55;;;;;;;1.14;62.39;100341.00;5032138;28;20037;-61
2022/11/20 11:21:22;;;;;;;23.67;14.13;;;;;;;1.19;63.21;100348.75;5032075;28;20059;-58
2022/11/20 11:23:59;;;;;;;26.10;13.77;;;;;;;1.17;62.09;100347.09;5032091;28;20456;-58
2022/11/20 11:26:25;;;;;;;29.50;13.93;;;;;;;1.07;62.62;100341.25;5043758;28;20044;-61
2022/11/20 11:28:58;;;;;;;21.48;12.57;;;;;;;1.02;62.79;100335.28;5051739;28;20341;-59
2022/11/20 11:31:29;;;;;;;20.08;12.52;;;;;;;1.04;62.79;100341.34;5051669;28;20033;-60
2022/11/20 11:34:16;;;;;;;21.85;13.10;;;;;;;1.08;62.61;100346.44;5051644;28;20065;-62